createdAt,value
2023-02-11T00:00:28.169Z,78.46
2023-02-11T00:01:34.048Z,78.42
2023-02-11T00:02:37.272Z,78.39
2023-02-11T00:03:40.380Z,78.85
2023-02-11T00:04:43.515Z,79.09
2023-02-11T00:05:46.681Z,79.16
2023-02-11T00:06:49.682Z,78.78
2023-02-11T00:07:52.820Z,78.77
2023-02-11T00:08:56.634Z,79.04
2023-02-11T00:10:00.262Z,79.41
2023-02-11T00:11:04.069Z,79.42
2023-02-11T00:12:07.096Z,79.46
2023-02-11T00:13:10.055Z,79.71
2023-02-11T00:14:13.140Z,79.84
2023-02-11T00:15:16.148Z,79.81
2023-02-11T00:16:21.866Z,79.62
2023-02-11T00:17:26.133Z,79.72
2023-02-11T00:18:29.184Z,80.02
2023-02-11T00:19:32.366Z,80.05
2023-02-11T00:20:35.349Z,79.97
2023-02-11T00:21:38.460Z,80.11
2023-02-11T00:22:41.589Z,80.14
2023-02-11T00:23:46.226Z,80.01
2023-02-11T00:24:49.345Z,80.04
2023-02-11T00:25:52.839Z,80.02
2023-02-11T00:26:56.389Z,80.06
2023-02-11T00:28:00.020Z,80.15
2023-02-11T00:29:05.030Z,80.31
2023-02-11T00:30:08.981Z,80.50
2023-02-11T00:31:13.228Z,80.51
2023-02-11T00:32:16.381Z,80.48
2023-02-11T00:33:19.500Z,80.44
2023-02-11T00:34:22.828Z,80.10
2023-02-11T00:35:25.923Z,80.11
2023-02-11T00:36:29.906Z,80.20
2023-02-11T00:37:36.696Z,80.16
2023-02-11T00:38:39.897Z,80.19
2023-02-11T00:39:43.033Z,80.22
2023-02-11T00:40:46.197Z,80.28
2023-02-11T00:41:49.323Z,80.25
2023-02-11T00:42:52.520Z,80.23
2023-02-11T00:43:55.487Z,80.25
2023-02-11T00:44:58.673Z,80.35
2023-02-11T00:46:01.686Z,80.51
2023-02-11T00:47:04.815Z,80.49
2023-02-11T00:48:07.822Z,80.42
2023-02-11T00:49:11.150Z,80.46
2023-02-11T00:50:14.230Z,80.69
2023-02-11T00:51:17.775Z,80.77
2023-02-11T00:52:20.877Z,80.58
2023-02-11T00:53:24.168Z,80.54
2023-02-11T00:54:29.873Z,80.66
2023-02-11T00:55:33.188Z,80.73
2023-02-11T00:56:36.350Z,80.78
2023-02-11T00:57:39.384Z,80.72
2023-02-11T00:58:42.589Z,80.46
2023-02-11T00:59:45.667Z,80.31
2023-02-11T01:00:49.570Z,80.30
2023-02-11T01:01:52.851Z,80.27
2023-02-11T01:02:56.359Z,80.42
2023-02-11T01:03:59.550Z,80.56
2023-02-11T01:05:02.761Z,80.60
2023-02-11T01:06:08.211Z,80.49
2023-02-11T01:07:11.579Z,80.52
2023-02-11T01:08:14.667Z,80.54
2023-02-11T01:09:18.159Z,80.45
2023-02-11T01:10:21.285Z,80.53
2023-02-11T01:11:24.463Z,80.59
2023-02-11T01:12:27.498Z,80.71
2023-02-11T01:13:33.058Z,80.87
2023-02-11T01:14:36.122Z,81.03
2023-02-11T01:15:39.422Z,81.25
2023-02-11T01:16:42.663Z,81.44
2023-02-11T01:17:45.940Z,81.51
2023-02-11T01:18:49.676Z,81.47
2023-02-11T01:19:52.870Z,81.33
2023-02-11T01:20:57.115Z,81.07
2023-02-11T01:22:00.257Z,80.74
2023-02-11T01:23:03.346Z,80.79
2023-02-11T01:24:06.918Z,81.00
2023-02-11T01:25:10.665Z,81.22
2023-02-11T01:26:14.161Z,81.08
2023-02-11T01:27:17.494Z,80.85
2023-02-11T01:28:26.470Z,80.79
2023-02-11T01:29:29.422Z,80.71
2023-02-11T01:30:32.709Z,80.74
2023-02-11T01:31:36.074Z,80.70
2023-02-11T01:32:39.265Z,80.66
2023-02-11T01:33:42.462Z,80.71
2023-02-11T01:34:45.456Z,80.52
2023-02-11T01:35:49.018Z,80.18
2023-02-11T01:36:56.862Z,80.29
2023-02-11T01:37:59.885Z,80.47
2023-02-11T01:39:02.975Z,80.57
2023-02-11T01:40:11.621Z,80.44
2023-02-11T01:41:15.462Z,80.46
2023-02-11T01:42:22.650Z,80.68
2023-02-11T01:43:28.428Z,80.83
2023-02-11T01:44:38.264Z,81.05
2023-02-11T01:45:50.044Z,81.17
2023-02-11T01:46:54.170Z,81.10
2023-02-11T01:47:57.623Z,80.91
2023-02-11T01:49:09.916Z,80.69
2023-02-11T01:50:13.661Z,80.69
2023-02-11T01:51:22.476Z,80.56
2023-02-11T01:52:39.405Z,80.32
2023-02-11T01:54:02.406Z,80.58
2023-02-11T01:55:32.856Z,80.66
2023-02-11T01:56:58.823Z,80.59
2023-02-11T01:58:05.554Z,80.60
2023-02-11T01:59:33.624Z,80.73
2023-02-11T02:00:39.306Z,80.83
2023-02-11T02:01:48.860Z,80.94
2023-02-11T02:03:13.474Z,81.00
2023-02-11T02:04:19.391Z,80.81
2023-02-11T02:06:07.424Z,80.58
2023-02-11T02:07:17.514Z,80.36
2023-02-11T02:08:50.621Z,80.49
2023-02-11T02:10:06.285Z,80.15
2023-02-11T02:11:10.023Z,80.49
2023-02-11T02:12:12.988Z,80.29
2023-02-11T02:13:16.519Z,80.31
2023-02-11T02:14:19.925Z,80.47
2023-02-11T02:15:26.734Z,80.67
2023-02-11T02:16:36.776Z,80.83
2023-02-11T02:17:57.495Z,80.69
2023-02-11T02:19:07.014Z,80.50
2023-02-11T02:20:10.144Z,80.43
2023-02-11T02:21:34.967Z,80.46
2023-02-11T02:23:03.844Z,80.61
2023-02-11T02:24:45.053Z,80.21
2023-02-11T02:26:09.451Z,80.28
2023-02-11T02:27:18.704Z,80.48
2023-02-11T02:28:59.630Z,80.69
2023-02-11T02:30:46.343Z,80.50
2023-02-11T02:32:37.337Z,80.17
2023-02-11T02:33:43.365Z,79.65
2023-02-11T02:35:10.544Z,79.82
2023-02-11T02:36:35.054Z,79.63
2023-02-11T02:37:43.865Z,79.91
2023-02-11T02:38:54.978Z,80.23
2023-02-11T02:40:03.660Z,80.42
2023-02-11T02:41:17.145Z,79.94
2023-02-11T02:42:21.363Z,79.36
2023-02-11T02:43:27.871Z,79.52
2023-02-11T02:44:31.644Z,79.37
2023-02-11T02:45:34.778Z,79.16
2023-02-11T02:46:38.018Z,78.87
2023-02-11T02:47:41.383Z,78.96
2023-02-11T02:48:45.786Z,79.22
2023-02-11T02:49:48.824Z,79.15
2023-02-11T02:51:00.698Z,79.01
2023-02-11T02:52:47.881Z,79.05
2023-02-11T02:54:09.581Z,79.07
2023-02-11T02:55:35.378Z,79.09
2023-02-11T02:56:52.141Z,78.97
2023-02-11T02:58:31.084Z,78.78
2023-02-11T02:59:58.874Z,78.78
2023-02-11T03:01:14.113Z,79.04
2023-02-11T03:02:47.404Z,79.01
2023-02-11T03:04:05.931Z,78.85
2023-02-11T03:05:35.660Z,78.58
2023-02-11T03:06:58.781Z,78.35
2023-02-11T03:08:16.629Z,77.96
2023-02-11T03:09:40.353Z,77.55
2023-02-11T03:10:50.957Z,77.36
2023-02-11T03:11:54.448Z,77.25
2023-02-11T03:12:58.571Z,77.26
2023-02-11T03:14:05.093Z,77.27
2023-02-11T03:15:09.168Z,77.39
2023-02-11T03:16:18.694Z,77.20
2023-02-11T03:17:24.040Z,77.07
2023-02-11T03:18:30.125Z,76.99
2023-02-11T03:19:44.190Z,77.03
2023-02-11T03:20:52.671Z,76.60
2023-02-11T03:21:57.673Z,76.44
2023-02-11T03:23:13.608Z,75.87
2023-02-11T03:24:24.754Z,75.61
2023-02-11T03:25:34.120Z,76.05
2023-02-11T03:26:49.132Z,76.42
2023-02-11T03:28:18.602Z,76.02
2023-02-11T03:29:44.449Z,75.89
2023-02-11T03:31:05.985Z,75.45
2023-02-11T03:32:25.261Z,75.69
2023-02-11T03:33:33.801Z,75.37
2023-02-11T03:34:45.883Z,75.54
2023-02-11T03:35:57.059Z,75.75
2023-02-11T03:37:14.912Z,75.43
2023-02-11T03:38:26.540Z,75.40
2023-02-11T03:39:36.873Z,75.73
2023-02-11T03:40:43.941Z,75.69
2023-02-11T03:41:49.305Z,75.69
2023-02-11T03:42:58.978Z,75.57
2023-02-11T03:44:03.378Z,75.48
2023-02-11T03:45:11.196Z,75.61
2023-02-11T03:46:18.071Z,75.86
2023-02-11T03:47:26.387Z,75.54
2023-02-11T03:48:37.347Z,75.77
2023-02-11T03:49:43.843Z,75.73
2023-02-11T03:50:48.713Z,75.75
2023-02-11T03:51:55.249Z,75.90
2023-02-11T03:53:02.443Z,76.05
2023-02-11T03:54:09.902Z,76.15
2023-02-11T03:55:17.906Z,75.66
2023-02-11T03:56:24.069Z,75.48
2023-02-11T03:57:27.310Z,75.43
2023-02-11T03:58:31.151Z,75.37
2023-02-11T03:59:54.208Z,75.68
2023-02-11T04:00:57.548Z,75.91
2023-02-11T04:02:00.732Z,75.89
2023-02-11T04:03:07.663Z,76.00
2023-02-11T04:04:11.235Z,76.00
2023-02-11T04:05:16.722Z,76.04
2023-02-11T04:06:19.934Z,75.99
2023-02-11T04:07:23.655Z,75.66
2023-02-11T04:08:26.918Z,75.61
2023-02-11T04:09:30.375Z,75.56
2023-02-11T04:10:34.088Z,75.22
2023-02-11T04:11:37.225Z,75.05
2023-02-11T04:12:40.423Z,74.88
2023-02-11T04:13:43.367Z,74.57
2023-02-11T04:14:46.444Z,74.51
2023-02-11T04:15:49.781Z,74.55
2023-02-11T04:16:53.126Z,74.69
2023-02-11T04:17:56.058Z,74.83
2023-02-11T04:18:59.306Z,75.06
2023-02-11T04:20:02.505Z,75.41
2023-02-11T04:21:05.932Z,75.56
2023-02-11T04:22:09.468Z,75.55
2023-02-11T04:23:12.698Z,75.42
2023-02-11T04:24:15.901Z,75.28
2023-02-11T04:25:18.975Z,75.21
2023-02-11T04:26:22.081Z,75.41
2023-02-11T04:27:25.205Z,75.63
2023-02-11T04:28:29.925Z,75.88
2023-02-11T04:29:33.115Z,76.06
2023-02-11T04:30:36.292Z,76.04
2023-02-11T04:31:39.235Z,75.71
2023-02-11T04:32:42.401Z,75.44
2023-02-11T04:33:45.428Z,75.59
2023-02-11T04:34:48.671Z,75.80
2023-02-11T04:35:52.004Z,76.12
2023-02-11T04:36:55.431Z,76.23
2023-02-11T04:37:58.698Z,75.85
2023-02-11T04:39:01.936Z,75.77
2023-02-11T04:40:05.396Z,75.66
2023-02-11T04:41:08.457Z,75.94
2023-02-11T04:42:11.630Z,76.49
2023-02-11T04:43:14.628Z,76.69
2023-02-11T04:44:17.680Z,76.89
2023-02-11T04:45:20.861Z,76.86
2023-02-11T04:46:23.886Z,77.12
2023-02-11T04:47:26.857Z,77.31
2023-02-11T04:48:29.986Z,77.50
2023-02-11T04:49:33.184Z,77.60
2023-02-11T04:50:36.352Z,77.69
2023-02-11T04:51:39.498Z,77.66
2023-02-11T04:52:42.488Z,77.73
2023-02-11T04:53:45.485Z,77.91
2023-02-11T04:54:48.428Z,77.86
2023-02-11T04:55:51.820Z,77.79
2023-02-11T04:56:55.077Z,77.96
2023-02-11T04:57:58.239Z,78.11
2023-02-11T04:59:01.438Z,78.30
2023-02-11T05:00:05.497Z,78.45
2023-02-11T05:01:10.494Z,78.47
2023-02-11T05:02:13.504Z,78.45
2023-02-11T05:03:16.958Z,78.16
2023-02-11T05:04:20.246Z,77.96
2023-02-11T05:05:23.296Z,78.07
2023-02-11T05:06:26.519Z,78.13
2023-02-11T05:07:29.604Z,77.94
2023-02-11T05:08:33.258Z,78.05
2023-02-11T05:09:36.338Z,77.94
2023-02-11T05:10:39.501Z,77.74
2023-02-11T05:11:42.932Z,77.85
2023-02-11T05:12:48.880Z,78.02
2023-02-11T05:13:52.433Z,77.83
2023-02-11T05:14:55.500Z,77.87
2023-02-11T05:15:58.828Z,77.94
2023-02-11T05:17:01.810Z,78.24
2023-02-11T05:18:05.156Z,78.46
2023-02-11T05:19:09.103Z,78.68
2023-02-11T05:20:12.388Z,78.63
2023-02-11T05:21:18.861Z,78.00
2023-02-11T05:22:22.396Z,77.71
2023-02-11T05:23:25.384Z,77.68
2023-02-11T05:24:28.380Z,77.68
2023-02-11T05:25:31.384Z,77.39
2023-02-11T05:26:34.479Z,77.42
2023-02-11T05:27:37.429Z,77.83
2023-02-11T05:28:41.547Z,78.12
2023-02-11T05:29:44.827Z,78.07
2023-02-11T05:30:48.137Z,78.23
2023-02-11T05:31:51.283Z,78.36
2023-02-11T05:32:54.631Z,78.35
2023-02-11T05:33:57.738Z,78.41
2023-02-11T05:35:00.973Z,78.38
2023-02-11T05:36:08.549Z,78.16
2023-02-11T05:37:12.165Z,78.16
2023-02-11T05:38:15.508Z,78.18
2023-02-11T05:39:18.586Z,78.24
2023-02-11T05:40:21.880Z,78.33
2023-02-11T05:41:24.965Z,78.38
2023-02-11T05:42:28.310Z,78.50
2023-02-11T05:43:31.541Z,78.66
2023-02-11T05:44:34.579Z,78.80
2023-02-11T05:45:37.667Z,78.98
2023-02-11T05:46:40.788Z,78.92
2023-02-11T05:47:44.716Z,78.35
2023-02-11T05:48:47.921Z,78.43
2023-02-11T05:49:53.959Z,78.56
2023-02-11T05:50:57.301Z,78.73
2023-02-11T05:52:00.457Z,78.92
2023-02-11T05:53:03.643Z,78.95
2023-02-11T05:54:06.983Z,78.79
2023-02-11T05:55:09.905Z,78.60
2023-02-11T05:56:14.949Z,78.67
2023-02-11T05:57:18.625Z,78.72
2023-02-11T05:58:21.686Z,78.85
2023-02-11T05:59:24.996Z,78.34
2023-02-11T06:00:28.026Z,78.18
2023-02-11T06:01:31.204Z,78.41
2023-02-11T06:02:34.759Z,78.60
2023-02-11T06:03:38.036Z,78.88
2023-02-11T06:04:41.841Z,78.96
2023-02-11T06:05:45.921Z,78.55
2023-02-11T06:06:49.648Z,78.31
2023-02-11T06:07:53.580Z,78.16
2023-02-11T06:08:56.790Z,78.26
2023-02-11T06:09:59.898Z,78.26
2023-02-11T06:11:03.028Z,78.32
2023-02-11T06:12:06.600Z,78.43
2023-02-11T06:13:09.769Z,78.42
2023-02-11T06:14:12.840Z,78.52
2023-02-11T06:15:15.948Z,78.62
2023-02-11T06:16:19.269Z,78.87
2023-02-11T06:17:23.581Z,78.83
2023-02-11T06:18:26.981Z,78.72
2023-02-11T06:19:31.357Z,78.43
2023-02-11T06:20:34.536Z,78.22
2023-02-11T06:21:43.932Z,78.25
2023-02-11T06:22:47.532Z,78.34
2023-02-11T06:23:50.715Z,78.32
2023-02-11T06:25:01.327Z,78.50
2023-02-11T06:26:07.152Z,78.55
2023-02-11T06:27:10.164Z,78.47
2023-02-11T06:28:13.557Z,78.56
2023-02-11T06:29:16.787Z,78.61
2023-02-11T06:30:19.848Z,78.69
2023-02-11T06:31:22.817Z,78.62
2023-02-11T06:32:45.533Z,78.66
2023-02-11T06:33:50.455Z,78.83
2023-02-11T06:34:53.499Z,79.06
2023-02-11T06:35:56.525Z,79.22
2023-02-11T06:36:59.777Z,79.37
2023-02-11T06:38:02.966Z,79.57
2023-02-11T06:39:06.274Z,79.40
2023-02-11T06:40:11.478Z,79.22
2023-02-11T06:41:16.693Z,78.99
2023-02-11T06:42:19.750Z,79.07
2023-02-11T06:43:23.249Z,79.18
2023-02-11T06:44:26.330Z,79.21
2023-02-11T06:45:29.473Z,79.18
2023-02-11T06:46:32.761Z,79.20
2023-02-11T06:47:35.981Z,79.15
2023-02-11T06:48:39.080Z,79.15
2023-02-11T06:49:42.464Z,79.13
2023-02-11T06:50:45.577Z,79.07
2023-02-11T06:51:48.624Z,78.93
2023-02-11T06:52:51.673Z,78.90
2023-02-11T06:53:55.494Z,78.88
2023-02-11T06:54:58.606Z,78.75
2023-02-11T06:56:06.674Z,78.64
2023-02-11T06:57:09.840Z,78.56
2023-02-11T06:58:13.230Z,78.52
2023-02-11T06:59:18.736Z,78.44
2023-02-11T07:00:21.926Z,78.41
2023-02-11T07:01:26.201Z,78.23
2023-02-11T07:02:29.825Z,78.14
2023-02-11T07:03:36.497Z,77.87
2023-02-11T07:04:39.377Z,77.78
2023-02-11T07:05:44.989Z,77.83
2023-02-11T07:06:48.209Z,77.83
2023-02-11T07:07:51.609Z,77.88
2023-02-11T07:08:56.037Z,77.94
2023-02-11T07:09:58.941Z,78.00
2023-02-11T07:11:02.168Z,77.88
2023-02-11T07:12:05.349Z,77.85
2023-02-11T07:13:08.529Z,77.76
2023-02-11T07:14:13.600Z,77.69
2023-02-11T07:15:16.770Z,77.77
2023-02-11T07:16:20.512Z,77.96
2023-02-11T07:17:23.773Z,78.07
2023-02-11T07:18:26.915Z,78.12
2023-02-11T07:19:29.993Z,78.10
2023-02-11T07:20:33.155Z,78.05
2023-02-11T07:21:36.330Z,77.98
2023-02-11T07:22:39.314Z,77.88
2023-02-11T07:23:42.742Z,77.94
2023-02-11T07:24:46.200Z,77.98
2023-02-11T07:25:49.594Z,77.95
2023-02-11T07:26:54.040Z,77.83
2023-02-11T07:27:57.276Z,77.47
2023-02-11T07:29:00.445Z,77.32
2023-02-11T07:30:07.252Z,77.38
2023-02-11T07:31:22.652Z,77.02
2023-02-11T07:32:25.654Z,76.58
2023-02-11T07:33:28.659Z,76.37
2023-02-11T07:34:31.940Z,76.26
2023-02-11T07:35:35.088Z,76.05
2023-02-11T07:36:38.403Z,75.71
2023-02-11T07:37:41.953Z,75.46
2023-02-11T07:38:45.244Z,75.34
2023-02-11T07:39:48.560Z,75.26
2023-02-11T07:40:51.681Z,75.20
2023-02-11T07:41:55.329Z,75.05
2023-02-11T07:42:58.463Z,74.95
2023-02-11T07:44:04.008Z,74.76
2023-02-11T07:45:08.123Z,74.54
2023-02-11T07:46:25.691Z,74.39
2023-02-11T07:47:28.836Z,74.05
2023-02-11T07:48:32.372Z,73.98
2023-02-11T07:49:35.503Z,73.81
2023-02-11T07:50:38.643Z,73.84
2023-02-11T07:51:42.260Z,73.57
2023-02-11T07:52:45.258Z,73.54
2023-02-11T07:53:48.421Z,73.35
2023-02-11T07:54:51.619Z,73.34
2023-02-11T07:55:54.626Z,73.39
2023-02-11T07:56:57.660Z,73.23
2023-02-11T07:58:00.710Z,70.56
2023-02-11T07:59:04.305Z,70.24
2023-02-11T08:00:08.142Z,70.14
2023-02-11T08:01:14.580Z,70.33
2023-02-11T08:02:17.642Z,70.61
2023-02-11T08:03:20.724Z,70.77
2023-02-11T08:04:23.997Z,70.87
2023-02-11T08:05:27.033Z,70.58
2023-02-11T08:06:33.054Z,70.33
2023-02-11T08:07:36.102Z,70.14
2023-02-11T08:08:39.477Z,69.89
2023-02-11T08:09:42.823Z,69.80
2023-02-11T08:10:45.912Z,69.83
2023-02-11T08:11:49.000Z,70.09
2023-02-11T08:12:52.161Z,70.18
2023-02-11T08:13:56.630Z,69.99
2023-02-11T08:14:59.873Z,69.70
2023-02-11T08:16:05.751Z,69.83
2023-02-11T08:17:08.878Z,69.34
2023-02-11T08:18:11.813Z,69.76
2023-02-11T08:19:17.112Z,69.82
2023-02-11T08:20:20.063Z,69.53
2023-02-11T08:21:24.785Z,69.69
2023-02-11T08:22:27.706Z,69.80
2023-02-11T08:23:30.659Z,69.28
2023-02-11T08:24:33.762Z,68.56
2023-02-11T08:25:37.003Z,68.49
2023-02-11T08:26:41.287Z,68.79
2023-02-11T08:27:44.398Z,68.90
2023-02-11T08:28:49.029Z,68.96
2023-02-11T08:29:52.855Z,69.09
2023-02-11T08:30:55.963Z,69.30
2023-02-11T08:31:59.067Z,69.32
2023-02-11T08:33:02.564Z,69.33
2023-02-11T08:34:05.963Z,68.83
2023-02-11T08:35:09.740Z,68.41
2023-02-11T08:36:16.614Z,68.82
2023-02-11T08:37:20.611Z,68.99
2023-02-11T08:38:23.761Z,68.82
2023-02-11T08:39:26.682Z,68.94
2023-02-11T08:40:29.950Z,69.03
2023-02-11T08:41:33.722Z,69.02
2023-02-11T08:42:37.042Z,68.89
2023-02-11T08:43:41.955Z,68.53
2023-02-11T08:44:45.090Z,68.05
2023-02-11T08:45:48.109Z,67.75
2023-02-11T08:46:52.165Z,67.76
2023-02-11T08:47:55.407Z,67.23
2023-02-11T08:48:58.689Z,67.15
2023-02-11T08:50:01.811Z,66.66
2023-02-11T08:51:13.679Z,66.89
2023-02-11T08:52:16.756Z,66.53
2023-02-11T08:53:19.872Z,66.54
2023-02-11T08:54:22.918Z,65.91
2023-02-11T08:55:26.386Z,65.66
2023-02-11T08:56:31.616Z,65.66
2023-02-11T08:57:34.796Z,66.08
2023-02-11T08:58:38.155Z,66.16
2023-02-11T08:59:41.331Z,66.34
2023-02-11T09:00:45.637Z,65.80
2023-02-11T09:01:48.852Z,65.25
2023-02-11T09:02:52.158Z,65.12
2023-02-11T09:03:55.863Z,64.94
2023-02-11T09:04:59.024Z,65.54
2023-02-11T09:06:06.971Z,65.97
2023-02-11T09:07:10.036Z,66.01
2023-02-11T09:08:14.124Z,66.29
2023-02-11T09:09:17.935Z,65.99
2023-02-11T09:10:20.967Z,65.56
2023-02-11T09:11:33.597Z,65.78
2023-02-11T09:12:36.838Z,64.87
2023-02-11T09:13:42.739Z,64.69
2023-02-11T09:14:45.730Z,65.06
2023-02-11T09:15:48.824Z,64.16
2023-02-11T09:16:53.524Z,64.09
2023-02-11T09:17:56.985Z,63.50
2023-02-11T09:19:02.222Z,63.85
2023-02-11T09:20:05.647Z,64.46
2023-02-11T09:21:10.300Z,64.26
2023-02-11T09:22:13.411Z,63.25
2023-02-11T09:23:18.568Z,63.79
2023-02-11T09:24:21.662Z,63.08
2023-02-11T09:25:25.381Z,60.62
2023-02-11T09:26:31.188Z,60.87
2023-02-11T09:27:34.900Z,61.02
2023-02-11T09:28:38.008Z,61.42
2023-02-11T09:29:41.224Z,61.32
2023-02-11T09:30:44.568Z,60.27
2023-02-11T09:31:47.782Z,60.52
2023-02-11T09:32:51.169Z,61.43
2023-02-11T09:33:57.373Z,60.65
2023-02-11T09:35:00.591Z,59.97
2023-02-11T09:36:05.062Z,60.25
2023-02-11T09:37:08.919Z,60.87
2023-02-11T09:38:11.912Z,59.79
2023-02-11T09:39:18.166Z,59.49
2023-02-11T09:40:21.713Z,60.33
2023-02-11T09:41:24.777Z,59.46
2023-02-11T09:42:46.676Z,58.73
2023-02-11T09:43:56.452Z,58.67
2023-02-11T09:45:01.570Z,58.61
2023-02-11T09:46:05.932Z,57.71
2023-02-11T09:47:36.456Z,57.56
2023-02-11T09:48:43.320Z,58.11
2023-02-11T09:49:50.869Z,57.49
2023-02-11T09:50:59.086Z,56.70
2023-02-11T09:52:07.643Z,56.85
2023-02-11T09:53:14.736Z,57.13
2023-02-11T09:54:34.839Z,58.08
2023-02-11T09:55:43.466Z,57.32
2023-02-11T09:56:46.716Z,58.10
2023-02-11T09:57:49.992Z,57.85
2023-02-11T09:58:54.822Z,57.47
2023-02-11T09:59:58.370Z,57.73
2023-02-11T10:01:59.104Z,58.06
2023-02-11T10:03:26.847Z,57.50
2023-02-11T10:04:38.146Z,57.28
2023-02-11T10:06:06.393Z,57.39
2023-02-11T10:07:15.244Z,57.15
2023-02-11T10:08:41.711Z,55.62
2023-02-11T10:10:20.261Z,56.68
2023-02-11T10:11:49.510Z,56.88
2023-02-11T10:13:04.068Z,57.61
2023-02-11T10:14:06.978Z,56.66
2023-02-11T10:15:21.952Z,57.13
2023-02-11T10:16:48.858Z,57.29
2023-02-11T10:18:32.348Z,57.79
2023-02-11T10:20:09.039Z,57.91
2023-02-11T10:21:36.553Z,57.75
2023-02-11T10:22:49.677Z,57.14
2023-02-11T10:23:57.617Z,57.16
2023-02-11T10:25:01.242Z,57.89
2023-02-11T10:26:12.113Z,57.60
2023-02-11T10:27:20.165Z,57.73
2023-02-11T10:28:51.675Z,57.55
2023-02-11T10:30:05.366Z,57.84
2023-02-11T10:31:44.020Z,57.31
2023-02-11T10:33:04.840Z,57.39
2023-02-11T10:34:13.421Z,58.06
2023-02-11T10:35:21.778Z,57.50
2023-02-11T10:36:30.506Z,58.33
2023-02-11T10:37:33.825Z,58.11
2023-02-11T10:38:37.461Z,57.36
2023-02-11T10:39:41.563Z,57.33
2023-02-11T10:40:44.810Z,56.98
2023-02-11T10:42:12.490Z,57.88
2023-02-11T10:43:27.233Z,57.93
2023-02-11T10:44:37.925Z,58.30
2023-02-11T10:45:45.756Z,57.87
2023-02-11T10:46:50.305Z,58.40
2023-02-11T10:47:53.435Z,57.94
2023-02-11T10:48:56.553Z,57.63
2023-02-11T10:50:03.905Z,57.83
2023-02-11T10:51:17.879Z,57.67
2023-02-11T10:52:26.773Z,58.93
2023-02-11T10:53:29.721Z,57.63
2023-02-11T10:54:32.695Z,57.88
2023-02-11T10:55:36.442Z,57.64
2023-02-11T10:56:46.081Z,56.75
2023-02-11T10:57:57.330Z,57.44
2023-02-11T10:59:14.854Z,58.08
2023-02-11T11:00:43.975Z,56.90
2023-02-11T11:01:50.716Z,57.06
2023-02-11T11:02:57.966Z,56.30
2023-02-11T11:04:01.267Z,56.22
2023-02-11T11:05:16.530Z,56.30
2023-02-11T11:06:32.043Z,56.84
2023-02-11T11:07:35.507Z,56.51
2023-02-11T11:08:48.301Z,55.36
2023-02-11T11:09:53.522Z,56.05
2023-02-11T11:11:07.567Z,54.81
2023-02-11T11:12:42.209Z,54.46
2023-02-11T11:13:58.385Z,54.74
2023-02-11T11:15:19.257Z,54.72
2023-02-11T11:16:30.688Z,54.88
2023-02-11T11:17:33.907Z,53.77
2023-02-11T11:18:37.115Z,53.33
2023-02-11T11:19:40.417Z,53.16
2023-02-11T11:21:01.811Z,53.65
2023-02-11T11:22:05.280Z,53.57
2023-02-11T11:23:28.544Z,53.15
2023-02-11T11:24:46.980Z,53.26
2023-02-11T11:26:11.723Z,51.96
2023-02-11T11:27:26.341Z,51.96
2023-02-11T11:28:33.549Z,51.98
2023-02-11T11:29:43.228Z,52.22
2023-02-11T11:30:46.420Z,50.20
2023-02-11T11:31:57.246Z,49.35
2023-02-11T11:33:01.456Z,48.25
2023-02-11T11:34:32.797Z,47.22
2023-02-11T11:35:35.926Z,47.53
2023-02-11T11:36:40.631Z,47.26
2023-02-11T11:37:46.003Z,47.36
2023-02-11T11:39:02.446Z,47.32
2023-02-11T11:40:25.153Z,48.41
2023-02-11T11:41:31.108Z,47.89
2023-02-11T11:42:37.117Z,47.21
2023-02-11T11:43:40.318Z,47.14
2023-02-11T11:44:59.662Z,47.30
2023-02-11T11:46:03.285Z,48.58
2023-02-11T11:47:12.202Z,47.41
2023-02-11T11:48:24.478Z,47.74
2023-02-11T11:49:36.101Z,47.47
2023-02-11T11:51:00.022Z,47.29
2023-02-11T11:52:38.237Z,46.72
2023-02-11T11:54:00.845Z,46.51
2023-02-11T11:55:17.584Z,46.59
2023-02-11T11:56:25.380Z,47.16
2023-02-11T11:57:30.853Z,46.78
2023-02-11T11:58:35.379Z,46.03
2023-02-11T11:59:41.913Z,46.51
2023-02-11T12:01:21.709Z,47.00
2023-02-11T12:02:40.278Z,47.24
2023-02-11T12:03:52.391Z,46.75
2023-02-11T12:04:55.521Z,47.00
2023-02-11T12:06:16.730Z,46.32
2023-02-11T12:07:35.162Z,46.32
2023-02-11T12:08:50.017Z,46.26
2023-02-11T12:10:14.935Z,45.79
2023-02-11T12:11:33.664Z,46.49
2023-02-11T12:12:53.731Z,46.64
2023-02-11T12:14:18.012Z,46.10
2023-02-11T12:15:40.043Z,46.64
2023-02-11T12:17:02.346Z,46.20
2023-02-11T12:18:24.683Z,46.11
2023-02-11T12:19:36.229Z,46.69
2023-02-11T12:20:53.978Z,46.07
2023-02-11T12:22:37.790Z,45.93
2023-02-11T12:23:54.275Z,46.49
2023-02-11T12:25:25.424Z,46.06
2023-02-11T12:26:41.199Z,45.85
2023-02-11T12:27:57.220Z,45.55
2023-02-11T12:29:07.093Z,45.47
2023-02-11T12:30:24.987Z,45.34
2023-02-11T12:32:07.683Z,45.30
2023-02-11T12:33:21.044Z,44.47
2023-02-11T12:34:42.394Z,44.69
2023-02-11T12:35:55.533Z,45.43
2023-02-11T12:37:10.881Z,45.34
2023-02-11T12:38:27.389Z,45.38
2023-02-11T12:39:43.387Z,45.80
2023-02-11T12:41:42.420Z,44.65
2023-02-11T12:43:11.266Z,44.65
2023-02-11T12:44:31.677Z,43.98
2023-02-11T12:46:03.300Z,43.94
2023-02-11T12:47:49.789Z,43.93
2023-02-11T12:49:21.803Z,43.81
2023-02-11T12:50:57.452Z,44.03
2023-02-11T12:52:30.366Z,43.43
2023-02-11T12:53:44.873Z,42.25
2023-02-11T12:55:04.429Z,41.95
2023-02-11T12:56:31.420Z,42.91
2023-02-11T12:57:38.528Z,42.92
2023-02-11T12:58:45.567Z,43.21
2023-02-11T13:00:14.900Z,42.72
2023-02-11T13:01:26.844Z,42.37
2023-02-11T13:03:05.581Z,41.56
2023-02-11T13:04:17.883Z,41.35
2023-02-11T13:05:30.636Z,41.90
2023-02-11T13:06:45.925Z,42.63
2023-02-11T13:07:53.186Z,43.14
2023-02-11T13:09:03.355Z,43.06
2023-02-11T13:10:26.781Z,43.23
2023-02-11T13:11:38.197Z,43.70
2023-02-11T13:13:05.108Z,43.81
2023-02-11T13:14:26.596Z,43.72
2023-02-11T13:15:31.227Z,43.95
2023-02-11T13:16:41.980Z,44.04
2023-02-11T13:18:01.894Z,43.03
2023-02-11T13:19:13.859Z,42.21
2023-02-11T13:20:28.949Z,42.43
2023-02-11T13:21:45.109Z,43.26
2023-02-11T13:23:03.602Z,43.52
2023-02-11T13:24:34.836Z,43.03
2023-02-11T13:25:50.398Z,43.42
2023-02-11T13:27:05.866Z,43.47
2023-02-11T13:28:27.041Z,42.91
2023-02-11T13:30:12.239Z,42.89
2023-02-11T13:31:17.380Z,42.73
2023-02-11T13:32:21.422Z,43.27
2023-02-11T13:33:37.179Z,43.57
2023-02-11T13:34:43.040Z,44.59
2023-02-11T13:35:58.533Z,43.32
2023-02-11T13:37:02.716Z,43.56
2023-02-11T13:38:19.047Z,43.89
2023-02-11T13:39:23.798Z,44.25
2023-02-11T13:40:39.596Z,43.20
2023-02-11T13:41:52.470Z,43.32
2023-02-11T13:43:03.321Z,43.95
2023-02-11T13:44:27.963Z,43.19
2023-02-11T13:45:43.659Z,43.71
2023-02-11T13:46:50.256Z,43.68
2023-02-11T13:48:02.598Z,44.17
2023-02-11T13:49:06.211Z,44.03
2023-02-11T13:50:25.389Z,43.38
2023-02-11T13:51:43.157Z,43.66
2023-02-11T13:53:02.072Z,44.15
2023-02-11T13:54:08.016Z,44.41
2023-02-11T13:55:14.762Z,44.05
2023-02-11T13:56:35.970Z,43.79
2023-02-11T13:57:41.135Z,43.96
2023-02-11T13:58:49.482Z,44.47
2023-02-11T13:59:59.519Z,44.17
2023-02-11T14:01:02.805Z,44.98
2023-02-11T14:02:42.583Z,44.81
2023-02-11T14:04:36.982Z,44.99
2023-02-11T14:06:27.950Z,44.97
2023-02-11T14:07:52.668Z,45.32
2023-02-11T14:09:09.979Z,45.66
2023-02-11T14:10:45.891Z,45.04
2023-02-11T14:11:52.318Z,43.69
2023-02-11T14:13:26.112Z,43.89
2023-02-11T14:14:34.157Z,43.59
2023-02-11T14:15:41.560Z,43.55
2023-02-11T14:17:04.786Z,44.14
2023-02-11T14:18:38.404Z,43.76
2023-02-11T14:19:47.102Z,44.42
2023-02-11T14:20:51.936Z,44.18
2023-02-11T14:22:12.434Z,43.59
2023-02-11T14:23:24.980Z,44.20
2023-02-11T14:24:28.222Z,44.51
2023-02-11T14:25:33.067Z,44.78
2023-02-11T14:26:58.891Z,44.43
2023-02-11T14:28:16.110Z,44.69
2023-02-11T14:29:37.678Z,44.24
2023-02-11T14:30:52.371Z,44.43
2023-02-11T14:32:04.053Z,44.55
2023-02-11T14:33:35.335Z,44.48
2023-02-11T14:34:42.235Z,45.48
2023-02-11T14:36:03.354Z,45.43
2023-02-11T14:37:27.285Z,45.46
2023-02-11T14:38:56.495Z,45.10
2023-02-11T14:40:27.160Z,45.63
2023-02-11T14:41:37.426Z,45.91
2023-02-11T14:42:41.311Z,46.19
2023-02-11T14:43:48.445Z,45.07
2023-02-11T14:44:56.514Z,45.30
2023-02-11T14:46:02.070Z,45.86
2023-02-11T14:47:06.506Z,46.30
2023-02-11T14:48:17.616Z,46.12
2023-02-11T14:49:29.138Z,45.96
2023-02-11T14:50:49.027Z,45.95